createdAt,value
2019-05-30T00:01:08.307Z,16.22
2019-05-30T00:06:09.711Z,16.21
2019-05-30T00:11:11.538Z,16.16
2019-05-30T00:16:13.048Z,16.11
2019-05-30T00:21:14.543Z,16.06
2019-05-30T00:26:15.907Z,15.99
2019-05-30T00:31:17.428Z,15.94
2019-05-30T00:36:18.839Z,15.94
2019-05-30T00:41:20.220Z,15.92
2019-05-30T00:46:21.771Z,15.91
2019-05-30T00:51:23.276Z,15.89
2019-05-30T00:56:24.830Z,15.87
2019-05-30T01:01:26.361Z,15.86
2019-05-30T01:06:27.866Z,15.84
2019-05-30T01:11:29.361Z,15.86
2019-05-30T01:16:30.892Z,15.84
2019-05-30T01:21:32.334Z,15.76
2019-05-30T01:26:33.853Z,15.71
2019-05-30T01:31:35.389Z,15.67
2019-05-30T01:36:36.871Z,15.60
2019-05-30T01:41:38.622Z,15.60
2019-05-30T01:46:40.039Z,15.58
2019-05-30T01:51:41.557Z,15.57
2019-05-30T01:56:43.102Z,15.54
2019-05-30T02:01:44.653Z,15.54
2019-05-30T02:06:46.160Z,15.50
2019-05-30T02:11:47.568Z,15.42
2019-05-30T02:16:49.092Z,15.37
2019-05-30T02:21:50.643Z,15.27
2019-05-30T02:26:51.968Z,15.12
2019-05-30T02:31:53.512Z,14.99
2019-05-30T02:36:55.025Z,14.93
2019-05-30T02:41:56.517Z,14.97
2019-05-30T02:46:58.042Z,15.03
2019-05-30T02:51:59.583Z,15.10
2019-05-30T02:57:01.522Z,15.12
2019-05-30T03:02:07.345Z,15.14
2019-05-30T03:07:08.481Z,15.15
2019-05-30T03:12:11.453Z,15.16
2019-05-30T03:17:14.653Z,15.13
2019-05-30T03:22:16.435Z,15.11
2019-05-30T03:27:17.953Z,15.07
2019-05-30T03:33:00.858Z,15.08
2019-05-30T03:37:29.373Z,15.08
2019-05-30T03:42:26.411Z,15.09
2019-05-30T03:47:27.907Z,15.11
2019-05-30T03:52:29.429Z,15.12
2019-05-30T03:57:33.357Z,15.10
2019-05-30T04:02:59.256Z,15.17
2019-05-30T04:08:00.508Z,15.17
2019-05-30T04:13:15.258Z,15.20
2019-05-30T04:18:17.152Z,15.20
2019-05-30T04:23:19.484Z,15.21
2019-05-30T04:28:21.249Z,15.24
2019-05-30T04:33:32.715Z,15.24
2019-05-30T04:38:26.242Z,15.23
2019-05-30T04:43:27.732Z,15.28
2019-05-30T04:48:29.242Z,15.30
2019-05-30T04:53:30.742Z,15.32
2019-05-30T04:58:32.447Z,15.37
2019-05-30T05:03:44.958Z,15.42
2019-05-30T05:08:37.439Z,15.46
2019-05-30T05:13:39.340Z,15.52
2019-05-30T05:18:40.883Z,15.52
2019-05-30T05:23:42.439Z,15.56
2019-05-30T05:28:44.055Z,15.58
2019-05-30T05:33:56.153Z,15.59
2019-05-30T05:38:49.060Z,15.63
2019-05-30T05:43:50.554Z,15.67
2019-05-30T05:48:52.082Z,15.72
2019-05-30T05:53:53.734Z,15.72
2019-05-30T05:58:55.213Z,15.64
2019-05-30T06:04:11.962Z,15.57
2019-05-30T06:09:00.389Z,15.55
2019-05-30T06:14:01.953Z,15.51
2019-05-30T06:19:03.434Z,15.64
2019-05-30T06:24:04.998Z,15.74
2019-05-30T06:29:06.792Z,15.78
2019-05-30T06:34:08.404Z,15.92
2019-05-30T06:39:09.935Z,15.98
2019-05-30T06:44:11.594Z,15.99
2019-05-30T06:49:13.226Z,15.98
2019-05-30T06:54:14.649Z,16.01
2019-05-30T06:59:16.211Z,15.93
2019-05-30T07:04:18.300Z,15.80
2019-05-30T07:09:20.141Z,15.82
2019-05-30T07:14:23.035Z,16.03
2019-05-30T07:19:25.325Z,16.25
2019-05-30T07:24:27.752Z,16.37
2019-05-30T07:29:29.981Z,16.24
2019-05-30T07:34:32.622Z,16.20
2019-05-30T07:39:37.315Z,16.14
2019-05-30T07:44:37.695Z,16.22
2019-05-30T07:49:39.221Z,16.30
2019-05-30T07:54:40.816Z,16.21
2019-05-30T07:59:42.359Z,16.21
2019-05-30T08:04:46.903Z,16.22
2019-05-30T08:09:47.585Z,16.17
2019-05-30T08:14:49.111Z,16.22
2019-05-30T08:19:50.629Z,16.37
2019-05-30T08:24:51.982Z,16.52
2019-05-30T08:29:53.481Z,16.65
2019-05-30T08:34:55.014Z,16.88
2019-05-30T08:39:56.566Z,17.02
2019-05-30T08:44:58.130Z,17.09
2019-05-30T08:49:59.647Z,17.07
2019-05-30T08:55:01.367Z,17.09
2019-05-30T09:00:03.977Z,17.05
2019-05-30T09:05:07.015Z,17.13
2019-05-30T09:10:08.842Z,17.12
2019-05-30T09:15:10.893Z,16.97
2019-05-30T09:20:12.400Z,17.13
2019-05-30T09:25:13.988Z,17.39
2019-05-30T09:30:15.507Z,17.53
2019-05-30T09:35:17.129Z,17.97
2019-05-30T09:40:19.327Z,18.56
2019-05-30T09:45:21.072Z,18.91
2019-05-30T09:50:22.481Z,19.49
2019-05-30T09:55:24.051Z,19.39
2019-05-30T10:00:25.552Z,19.18
2019-05-30T10:05:27.105Z,18.96
2019-05-30T10:10:28.604Z,19.19
2019-05-30T10:15:30.027Z,19.28
2019-05-30T10:20:31.676Z,18.92
2019-05-30T10:25:33.245Z,18.69
2019-05-30T10:30:34.798Z,18.42
2019-05-30T10:35:36.439Z,18.64
2019-05-30T10:40:38.034Z,18.88
2019-05-30T10:45:39.565Z,19.35
2019-05-30T10:50:41.108Z,19.27
2019-05-30T10:55:42.513Z,19.52
2019-05-30T11:00:48.452Z,19.28
2019-05-30T11:06:13.680Z,18.98
2019-05-30T11:11:15.272Z,19.19
2019-05-30T11:16:16.780Z,18.89
2019-05-30T11:21:18.289Z,18.68
2019-05-30T11:26:19.773Z,18.77
2019-05-30T11:31:21.189Z,18.83
2019-05-30T11:36:22.706Z,18.93
2019-05-30T11:41:24.274Z,19.30
2019-05-30T11:46:25.815Z,20.03
2019-05-30T11:51:27.325Z,20.13
2019-05-30T11:56:28.821Z,20.01
2019-05-30T12:01:30.344Z,20.80
2019-05-30T12:06:31.850Z,21.31
2019-05-30T12:11:33.343Z,21.58
2019-05-30T12:16:34.969Z,21.73
2019-05-30T12:21:36.430Z,22.06
2019-05-30T12:26:37.937Z,22.20
2019-05-30T12:31:39.423Z,22.54
2019-05-30T12:36:41.002Z,23.06
2019-05-30T12:41:42.539Z,22.97
2019-05-30T12:46:44.134Z,22.74
2019-05-30T12:51:45.665Z,22.91
2019-05-30T12:56:47.187Z,23.18
2019-05-30T13:01:48.710Z,23.48
2019-05-30T13:06:53.851Z,23.48
2019-05-30T13:11:54.270Z,23.89
2019-05-30T13:16:55.914Z,23.42
2019-05-30T13:21:57.373Z,23.26
2019-05-30T13:26:59.656Z,23.26
2019-05-30T13:32:02.533Z,23.66
2019-05-30T13:37:05.074Z,23.79
2019-05-30T13:42:07.869Z,24.20
2019-05-30T13:47:09.467Z,24.18
2019-05-30T13:52:10.962Z,24.12
2019-05-30T13:57:12.586Z,24.28
2019-05-30T14:02:14.134Z,24.31
2019-05-30T14:07:15.659Z,24.36
2019-05-30T14:12:17.148Z,24.17
2019-05-30T14:17:18.593Z,24.34
2019-05-30T14:22:20.100Z,24.39
2019-05-30T14:27:21.788Z,24.39
2019-05-30T14:32:23.440Z,24.63
2019-05-30T14:37:24.951Z,24.75
2019-05-30T14:42:26.531Z,24.82
2019-05-30T14:47:28.025Z,24.96
2019-05-30T14:52:29.898Z,25.05
2019-05-30T14:57:31.473Z,25.09
2019-05-30T15:02:33.104Z,24.94
2019-05-30T15:07:34.623Z,25.04
2019-05-30T15:12:36.074Z,24.95
2019-05-30T15:17:37.599Z,24.95
2019-05-30T15:22:39.093Z,24.98
2019-05-30T15:27:40.608Z,25.07
2019-05-30T15:32:42.236Z,24.95
2019-05-30T15:37:43.662Z,24.95
2019-05-30T15:42:45.291Z,24.78
2019-05-30T15:47:46.681Z,24.21
2019-05-30T15:52:48.568Z,24.08
2019-05-30T15:57:50.018Z,23.83
2019-05-30T16:02:51.544Z,24.00
2019-05-30T16:07:53.153Z,23.77
2019-05-30T16:12:54.796Z,23.65
2019-05-30T16:17:56.390Z,23.55
2019-05-30T16:22:57.981Z,23.95
2019-05-30T16:27:59.391Z,23.84
2019-05-30T16:33:00.902Z,23.74
2019-05-30T16:38:02.430Z,23.66
2019-05-30T16:43:03.871Z,23.79
2019-05-30T16:48:05.340Z,23.94
2019-05-30T16:53:06.873Z,24.17
2019-05-30T16:58:08.493Z,23.95
2019-05-30T17:03:09.948Z,24.20
2019-05-30T17:08:11.612Z,24.47
2019-05-30T17:13:12.864Z,24.46
2019-05-30T17:18:14.395Z,24.36
2019-05-30T17:23:16.743Z,25.08
2019-05-30T17:28:18.388Z,25.38
2019-05-30T17:33:21.762Z,25.52
2019-05-30T17:38:24.540Z,24.56
2019-05-30T17:43:27.141Z,24.09
2019-05-30T17:48:29.777Z,23.93
2019-05-30T17:53:31.597Z,23.53
2019-05-30T17:58:33.085Z,23.39
2019-05-30T18:03:34.628Z,23.26
2019-05-30T18:08:36.207Z,23.16
2019-05-30T18:13:37.760Z,22.97
2019-05-30T18:18:39.286Z,22.84
2019-05-30T18:23:40.858Z,22.67
2019-05-30T18:28:42.253Z,22.48
2019-05-30T18:33:44.232Z,22.28
2019-05-30T18:38:45.798Z,22.24
2019-05-30T18:43:47.425Z,22.19
2019-05-30T18:48:49.064Z,22.26
2019-05-30T18:53:50.744Z,22.17
2019-05-30T18:58:52.353Z,22.14
2019-05-30T19:03:53.952Z,22.11
2019-05-30T19:08:56.546Z,22.06
2019-05-30T19:13:58.090Z,22.01
2019-05-30T19:18:59.629Z,21.86
2019-05-30T19:24:01.122Z,21.82
2019-05-30T19:29:03.684Z,21.78
2019-05-30T19:34:05.296Z,21.68
2019-05-30T19:39:06.934Z,21.65
2019-05-30T19:44:08.439Z,21.66
2019-05-30T19:49:09.758Z,21.63
2019-05-30T19:54:11.278Z,21.57
2019-05-30T19:59:12.800Z,21.50
2019-05-30T20:04:14.323Z,21.43
2019-05-30T20:09:15.864Z,21.49
2019-05-30T20:14:17.367Z,21.30
2019-05-30T20:19:18.986Z,21.21
2019-05-30T20:24:20.383Z,21.18
2019-05-30T20:29:22.098Z,21.12
2019-05-30T20:34:23.586Z,21.04
2019-05-30T20:39:25.097Z,20.93
2019-05-30T20:44:26.580Z,20.85
2019-05-30T20:49:28.439Z,20.79
2019-05-30T20:54:29.967Z,20.75
2019-05-30T20:59:31.514Z,20.66
2019-05-30T21:04:32.974Z,20.62
2019-05-30T21:09:35.859Z,20.57
2019-05-30T21:14:37.577Z,20.50
2019-05-30T21:19:39.805Z,20.41
2019-05-30T21:24:42.668Z,20.32
2019-05-30T21:29:45.745Z,20.27
2019-05-30T21:34:48.588Z,20.17
2019-05-30T21:39:50.408Z,20.11
2019-05-30T21:44:52.856Z,20.12
2019-05-30T21:49:54.575Z,20.11
2019-05-30T21:54:55.908Z,20.05
2019-05-30T21:59:57.377Z,19.97
2019-05-30T22:04:58.839Z,19.90
2019-05-30T22:10:00.378Z,19.86
2019-05-30T22:15:01.899Z,19.79
2019-05-30T22:20:04.162Z,19.71
2019-05-30T22:25:05.700Z,19.68
2019-05-30T22:30:07.538Z,19.64
2019-05-30T22:35:09.016Z,19.57
2019-05-30T22:40:10.557Z,19.48
2019-05-30T22:45:12.044Z,19.46
2019-05-30T22:50:13.494Z,19.43
2019-05-30T22:55:15.118Z,19.42
2019-05-30T23:00:16.596Z,19.37
2019-05-30T23:05:18.116Z,19.36
2019-05-30T23:10:19.639Z,19.31
2019-05-30T23:15:21.064Z,19.25
2019-05-30T23:20:22.553Z,19.18
2019-05-30T23:25:24.097Z,19.13
2019-05-30T23:30:25.737Z,19.09
2019-05-30T23:35:27.344Z,18.97
2019-05-30T23:40:28.879Z,18.99
2019-05-30T23:45:30.831Z,18.96
2019-05-30T23:50:32.471Z,18.94
2019-05-30T23:55:34.284Z,18.87
